Time;durP1;ratioP1;P1;durP2;ratioP2;P2;SDS_P1;SDS_P2;PMS_P1;PMS_P2;Temp;Humidity;BMP_temperature;BMP_pressure;BME280_temperature;BME280_humidity;BME280_pressure;Samples;Min_cycle;Max_cycle;Signal;HPM_P1;HPM_P2
2021/05/09 00:02:18;;;;;;;3.60;2.10;;;;;;;;;;4887121;29;20056;-51
2021/05/09 00:04:46;;;;;;;7.88;2.28;;;;;;;;;;4890153;29;20063;-58
2021/05/09 00:07:13;;;;;;;10.10;2.83;;;;;;;;;;4887285;29;20048;-56
2021/05/09 00:09:39;;;;;;;10.52;3.33;;;;;;;;;;4891329;29;20073;-54
2021/05/09 00:12:05;;;;;;;7.00;2.80;;;;;;;;;;4879951;29;20070;-56
2021/05/09 00:14:33;;;;;;;6.38;2.80;;;;;;;;;;4872702;29;20040;-55
2021/05/09 00:16:59;;;;;;;13.52;3.03;;;;;;;;;;4868661;29;20055;-55
2021/05/09 00:19:25;;;;;;;6.30;2.47;;;;;;;;;;4885240;29;20036;-56
2021/05/09 00:21:50;;;;;;;8.10;2.60;;;;;;;;;;4879994;29;20049;-57
2021/05/09 00:24:18;;;;;;;8.38;2.38;;;;;;;;;;4889323;29;20040;-54
2021/05/09 00:26:44;;;;;;;5.88;2.40;;;;;;;;;;4892426;29;20067;-56
2021/05/09 00:29:09;;;;;;;8.30;2.30;;;;;;;;;;4867949;29;20049;-55
2021/05/09 00:31:35;;;;;;;9.15;2.53;;;;;;;;;;4871753;29;20045;-57
2021/05/09 00:34:02;;;;;;;9.38;2.63;;;;;;;;;;4882436;29;20164;-53
2021/05/09 00:36:28;;;;;;;10.75;2.50;;;;;;;;;;4889124;29;20059;-56
2021/05/09 00:38:53;;;;;;;8.75;2.50;;;;;;;;;;4886675;29;20032;-58
2021/05/09 00:41:22;;;;;;;8.15;2.85;;;;;;;;;;4890011;29;20040;-59
2021/05/09 00:43:48;;;;;;;5.47;2.50;;;;;;;;;;4875759;29;20128;-61
2021/05/09 00:46:14;;;;;;;7.72;2.38;;;;;;;;;;4888260;29;20044;-60
2021/05/09 00:48:40;;;;;;;9.52;2.33;;;;;;;;;;4892481;29;20081;-58
2021/05/09 00:51:06;;;;;;;9.75;2.97;;;;;;;;;;4890008;29;20092;-57
2021/05/09 00:53:34;;;;;;;7.18;2.55;;;;;;;;;;4881985;29;20051;-54
2021/05/09 00:56:01;;;;;;;5.97;2.35;;;;;;;;;;4873339;29;20041;-58
2021/05/09 00:58:30;;;;;;;6.80;2.65;;;;;;;;;;4869451;29;20179;-58
2021/05/09 01:00:56;;;;;;;9.23;3.05;;;;;;;;;;4870732;29;20049;-58
2021/05/09 01:03:27;;;;;;;7.25;2.67;;;;;;;;;;4871033;29;20044;-55
2021/05/09 01:05:55;;;;;;;8.23;2.28;;;;;;;;;;4871803;29;20170;-57
2021/05/09 01:08:22;;;;;;;7.38;2.20;;;;;;;;;;4867345;29;20042;-58
2021/05/09 01:10:50;;;;;;;8.60;2.55;;;;;;;;;;4868460;29;20056;-56
2021/05/09 01:13:16;;;;;;;5.63;2.47;;;;;;;;;;4869581;29;20045;-56
2021/05/09 01:15:43;;;;;;;5.75;2.55;;;;;;;;;;4871322;29;20059;-57
2021/05/09 01:18:09;;;;;;;7.75;2.20;;;;;;;;;;4871479;29;20048;-52
2021/05/09 01:20:36;;;;;;;9.57;2.63;;;;;;;;;;4868408;29;20052;-55
2021/05/09 01:23:03;;;;;;;9.40;2.65;;;;;;;;;;4871865;29;20044;-54
2021/05/09 01:25:29;;;;;;;11.80;2.85;;;;;;;;;;4867941;29;20073;-56
2021/05/09 01:27:56;;;;;;;8.02;2.65;;;;;;;;;;4875755;29;20123;-57
2021/05/09 01:30:23;;;;;;;7.30;2.40;;;;;;;;;;4879266;29;20048;-52
2021/05/09 01:32:49;;;;;;;10.73;2.97;;;;;;;;;;4891973;29;20044;-55
2021/05/09 01:35:15;;;;;;;8.25;2.50;;;;;;;;;;4886387;29;20036;-57
2021/05/09 01:37:42;;;;;;;6.93;2.50;;;;;;;;;;4889687;29;20048;-53
2021/05/09 01:40:08;;;;;;;8.38;2.40;;;;;;;;;;4881634;29;20067;-52
2021/05/09 01:42:34;;;;;;;6.03;2.63;;;;;;;;;;4871155;29;20128;-57
2021/05/09 01:45:00;;;;;;;7.75;2.53;;;;;;;;;;4867609;29;20173;-56
2021/05/09 01:47:26;;;;;;;8.55;2.53;;;;;;;;;;4881184;29;20041;-54
2021/05/09 01:49:52;;;;;;;8.15;2.38;;;;;;;;;;4852018;29;20045;-60
2021/05/09 01:52:19;;;;;;;6.30;2.30;;;;;;;;;;4900740;29;20056;-55
2021/05/09 01:54:47;;;;;;;6.40;2.40;;;;;;;;;;4889263;29;20040;-60
2021/05/09 01:57:13;;;;;;;6.53;2.55;;;;;;;;;;4883939;29;20044;-57
2021/05/09 01:59:39;;;;;;;4.15;2.13;;;;;;;;;;4866031;29;20033;-57
2021/05/09 02:02:05;;;;;;;6.82;2.50;;;;;;;;;;4871526;29;20160;-55
2021/05/09 02:04:33;;;;;;;8.23;2.10;;;;;;;;;;4883281;29;20184;-56
2021/05/09 02:06:59;;;;;;;7.20;2.60;;;;;;;;;;4892656;29;20053;-58
2021/05/09 02:09:25;;;;;;;5.47;2.25;;;;;;;;;;4869557;29;20048;-58
2021/05/09 02:11:52;;;;;;;6.57;2.58;;;;;;;;;;4867388;29;20056;-60
2021/05/09 02:14:18;;;;;;;4.68;1.92;;;;;;;;;;4870056;29;20037;-53
2021/05/09 02:16:44;;;;;;;7.70;2.65;;;;;;;;;;4871996;29;20056;-60
2021/05/09 02:19:10;;;;;;;5.93;2.47;;;;;;;;;;4881209;29;20073;-53
2021/05/09 02:21:36;;;;;;;4.80;2.10;;;;;;;;;;4881665;29;20128;-57
2021/05/09 02:24:04;;;;;;;4.85;2.25;;;;;;;;;;4871320;29;20040;-55
2021/05/09 02:26:29;;;;;;;5.93;2.33;;;;;;;;;;4855503;29;20140;-52
2021/05/09 02:28:56;;;;;;;5.68;2.30;;;;;;;;;;4863190;29;20049;-52
2021/05/09 02:31:22;;;;;;;4.82;2.33;;;;;;;;;;4890746;29;20056;-56
2021/05/09 02:33:49;;;;;;;4.90;2.33;;;;;;;;;;4867691;29;20084;-52
2021/05/09 02:36:15;;;;;;;8.38;2.28;;;;;;;;;;4871081;29;20093;-53
2021/05/09 02:38:41;;;;;;;7.97;2.70;;;;;;;;;;4866590;29;20045;-54
2021/05/09 02:41:07;;;;;;;5.40;2.30;;;;;;;;;;4868548;29;20033;-54
2021/05/09 02:43:35;;;;;;;5.38;2.40;;;;;;;;;;4867114;29;20188;-56
2021/05/09 02:46:01;;;;;;;6.93;2.55;;;;;;;;;;4870349;29;20060;-54
2021/05/09 02:48:28;;;;;;;6.97;2.88;;;;;;;;;;4883892;29;20056;-53
2021/05/09 02:50:54;;;;;;;5.78;2.38;;;;;;;;;;4870554;29;20037;-56
2021/05/09 02:53:20;;;;;;;9.18;2.97;;;;;;;;;;4870686;29;20153;-57
2021/05/09 02:55:49;;;;;;;10.40;3.15;;;;;;;;;;4887780;29;20068;-52
2021/05/09 02:58:14;;;;;;;4.95;2.25;;;;;;;;;;4884559;29;20041;-54
2021/05/09 03:03:22;;;;;;;6.47;2.55;;;;;;;;;;4929925;23;20063;-51
2021/05/09 03:05:48;;;;;;;6.05;2.45;;;;;;;;;;4905838;29;20051;-54
2021/05/09 03:08:14;;;;;;;6.55;2.47;;;;;;;;;;4918813;29;20048;-54
2021/05/09 03:10:40;;;;;;;11.30;2.90;;;;;;;;;;4922117;29;20172;-53
2021/05/09 03:13:06;;;;;;;8.52;2.58;;;;;;;;;;4924171;29;20048;-57
2021/05/09 03:15:32;;;;;;;6.00;2.92;;;;;;;;;;4914695;29;20063;-52
2021/05/09 03:17:58;;;;;;;8.48;2.33;;;;;;;;;;4897908;29;20043;-52
2021/05/09 03:20:24;;;;;;;7.13;2.70;;;;;;;;;;4901303;29;20040;-59
2021/05/09 03:22:50;;;;;;;7.22;2.80;;;;;;;;;;4926181;29;20051;-58
2021/05/09 03:25:16;;;;;;;9.05;3.00;;;;;;;;;;4917803;29;20060;-55
2021/05/09 03:27:42;;;;;;;6.90;2.95;;;;;;;;;;4923573;28;20051;-57
2021/05/09 03:30:09;;;;;;;8.23;2.90;;;;;;;;;;4908940;29;20129;-56
2021/05/09 03:32:35;;;;;;;9.40;3.22;;;;;;;;;;4920099;29;20051;-58
2021/05/09 03:35:01;;;;;;;7.70;3.03;;;;;;;;;;4926236;29;20059;-60
2021/05/09 03:37:28;;;;;;;7.15;2.78;;;;;;;;;;4917674;29;20052;-59
2021/05/09 03:39:54;;;;;;;5.25;2.45;;;;;;;;;;4909076;29;20047;-57
2021/05/09 03:42:21;;;;;;;7.95;2.55;;;;;;;;;;4901948;29;20067;-58
2021/05/09 03:44:47;;;;;;;10.30;2.85;;;;;;;;;;4907642;29;20071;-58
2021/05/09 03:47:14;;;;;;;7.68;2.90;;;;;;;;;;4921007;29;20055;-55
2021/05/09 03:49:40;;;;;;;8.13;3.03;;;;;;;;;;4917720;29;20055;-49
2021/05/09 03:52:06;;;;;;;8.82;2.92;;;;;;;;;;4909285;29;20044;-53
2021/05/09 03:54:33;;;;;;;9.48;3.00;;;;;;;;;;4902306;29;20111;-57
2021/05/09 03:56:59;;;;;;;5.00;2.25;;;;;;;;;;4910190;29;20040;-57
2021/05/09 03:59:25;;;;;;;5.30;2.50;;;;;;;;;;4903239;29;20068;-56
2021/05/09 04:01:51;;;;;;;8.23;3.00;;;;;;;;;;4925812;29;20044;-55
2021/05/09 04:04:18;;;;;;;9.25;2.60;;;;;;;;;;4923243;29;20040;-53
2021/05/09 04:06:45;;;;;;;8.13;3.10;;;;;;;;;;4905568;29;20052;-55
2021/05/09 04:09:11;;;;;;;5.65;2.70;;;;;;;;;;4890793;29;20134;-54
2021/05/09 04:11:37;;;;;;;6.05;2.70;;;;;;;;;;4891841;29;20036;-57
2021/05/09 04:14:04;;;;;;;6.35;2.63;;;;;;;;;;4909633;29;20062;-50
2021/05/09 04:16:30;;;;;;;9.38;2.67;;;;;;;;;;4903673;29;20077;-56
2021/05/09 04:18:56;;;;;;;9.50;2.88;;;;;;;;;;4910775;29;20057;-51
2021/05/09 04:21:22;;;;;;;5.82;2.60;;;;;;;;;;4907250;29;20044;-52
2021/05/09 04:23:48;;;;;;;7.03;2.83;;;;;;;;;;4929056;29;20047;-53
2021/05/09 04:26:14;;;;;;;4.70;2.47;;;;;;;;;;4914332;29;20055;-54
2021/05/09 04:28:41;;;;;;;6.72;2.28;;;;;;;;;;4909208;29;20036;-50
2021/05/09 04:31:07;;;;;;;5.97;2.80;;;;;;;;;;4912510;29;20047;-50
2021/05/09 04:33:33;;;;;;;6.40;2.65;;;;;;;;;;4908476;29;20048;-53
2021/05/09 04:35:59;;;;;;;6.53;3.03;;;;;;;;;;4910113;29;20067;-56
2021/05/09 04:38:25;;;;;;;7.68;2.92;;;;;;;;;;4923969;29;20044;-56
2021/05/09 04:40:51;;;;;;;7.47;2.90;;;;;;;;;;4909160;29;20050;-56
2021/05/09 04:43:17;;;;;;;8.30;3.30;;;;;;;;;;4917221;29;20048;-56
2021/05/09 04:45:46;;;;;;;5.63;2.72;;;;;;;;;;4927941;29;20051;-53
2021/05/09 04:48:12;;;;;;;6.22;3.42;;;;;;;;;;4915289;29;20172;-57
2021/05/09 04:50:38;;;;;;;7.60;3.10;;;;;;;;;;4909239;29;20032;-54
2021/05/09 04:53:04;;;;;;;7.60;2.90;;;;;;;;;;4923825;29;20039;-53
2021/05/09 04:55:30;;;;;;;7.00;2.80;;;;;;;;;;4909040;29;20055;-54
2021/05/09 04:57:56;;;;;;;8.75;3.30;;;;;;;;;;4908806;29;20159;-57
2021/05/09 05:00:22;;;;;;;6.05;3.13;;;;;;;;;;4928196;29;20032;-52
2021/05/09 05:02:49;;;;;;;7.57;3.15;;;;;;;;;;4922794;29;20047;-57
2021/05/09 05:05:15;;;;;;;9.15;3.45;;;;;;;;;;4907860;29;20048;-51
2021/05/09 05:07:41;;;;;;;13.13;3.53;;;;;;;;;;4926088;29;20096;-59
2021/05/09 05:10:08;;;;;;;6.80;3.08;;;;;;;;;;4905377;29;20052;-57
2021/05/09 05:12:34;;;;;;;9.93;3.55;;;;;;;;;;4909373;29;20051;-55
2021/05/09 05:15:00;;;;;;;8.93;3.45;;;;;;;;;;4920529;29;20055;-53
2021/05/09 05:17:26;;;;;;;6.45;2.97;;;;;;;;;;4927299;29;20046;-54
2021/05/09 05:19:52;;;;;;;7.97;3.58;;;;;;;;;;4910970;29;20051;-55
2021/05/09 05:22:18;;;;;;;8.02;3.17;;;;;;;;;;4907453;29;20055;-53
2021/05/09 05:24:47;;;;;;;12.65;3.50;;;;;;;;;;4922547;28;20060;-56
2021/05/09 05:27:12;;;;;;;7.28;2.97;;;;;;;;;;4924948;29;20111;-52
2021/05/09 05:29:38;;;;;;;8.10;2.97;;;;;;;;;;4905707;29;20044;-56
2021/05/09 05:32:05;;;;;;;9.32;3.03;;;;;;;;;;4927546;29;20067;-52
2021/05/09 05:34:31;;;;;;;8.02;3.22;;;;;;;;;;4926912;29;20039;-54
2021/05/09 05:36:58;;;;;;;7.13;3.15;;;;;;;;;;4925984;29;20043;-51
2021/05/09 05:39:24;;;;;;;8.48;3.30;;;;;;;;;;4914357;29;20119;-53
2021/05/09 05:41:50;;;;;;;8.02;2.80;;;;;;;;;;4927346;29;20031;-54
2021/05/09 05:44:16;;;;;;;6.82;3.17;;;;;;;;;;4943076;29;20040;-52
2021/05/09 05:46:42;;;;;;;10.35;3.50;;;;;;;;;;4907592;29;20062;-55
2021/05/09 05:49:08;;;;;;;5.93;2.92;;;;;;;;;;4907641;29;20464;-52
2021/05/09 05:51:34;;;;;;;7.25;3.33;;;;;;;;;;4906013;29;20047;-55
2021/05/09 05:54:01;;;;;;;8.65;3.35;;;;;;;;;;4909101;29;20047;-56
2021/05/09 05:56:27;;;;;;;8.02;3.38;;;;;;;;;;4922902;29;20044;-53
2021/05/09 05:58:53;;;;;;;5.63;2.53;;;;;;;;;;4909142;29;20044;-51
2021/05/09 06:01:20;;;;;;;11.10;3.88;;;;;;;;;;4916187;29;20039;-53
2021/05/09 06:03:47;;;;;;;7.60;3.25;;;;;;;;;;4903674;29;20040;-49
2021/05/09 06:06:13;;;;;;;10.48;3.35;;;;;;;;;;4897115;29;20036;-50
2021/05/09 06:08:40;;;;;;;8.15;3.55;;;;;;;;;;4907440;29;20055;-58
2021/05/09 06:11:07;;;;;;;6.43;3.13;;;;;;;;;;4898409;29;20156;-55
2021/05/09 06:13:33;;;;;;;11.43;3.25;;;;;;;;;;4883633;29;20062;-56
2021/05/09 06:15:59;;;;;;;6.88;3.17;;;;;;;;;;4901444;29;20044;-56
2021/05/09 06:18:25;;;;;;;9.00;3.63;;;;;;;;;;4888459;29;20032;-50
2021/05/09 06:20:51;;;;;;;5.65;2.75;;;;;;;;;;4885575;29;20048;-57
2021/05/09 06:23:20;;;;;;;7.53;3.30;;;;;;;;;;4887508;29;20052;-52
2021/05/09 06:25:47;;;;;;;6.22;2.85;;;;;;;;;;4888107;29;20047;-55
2021/05/09 06:28:14;;;;;;;8.48;3.28;;;;;;;;;;4897345;29;20063;-56
2021/05/09 06:30:40;;;;;;;7.80;3.30;;;;;;;;;;4891680;29;20052;-56
2021/05/09 06:33:06;;;;;;;8.73;2.95;;;;;;;;;;4881876;29;20056;-58
2021/05/09 06:35:36;;;;;;;9.93;3.00;;;;;;;;;;4906609;29;20040;-54
2021/05/09 06:38:02;;;;;;;6.25;2.80;;;;;;;;;;4889446;29;20060;-54
2021/05/09 06:40:28;;;;;;;6.47;2.90;;;;;;;;;;4891108;29;20054;-59
2021/05/09 06:42:55;;;;;;;6.95;2.63;;;;;;;;;;4900759;29;20072;-53
2021/05/09 06:45:23;;;;;;;4.88;2.47;;;;;;;;;;4889158;29;20032;-55
2021/05/09 06:47:49;;;;;;;7.20;2.90;;;;;;;;;;4887969;29;20059;-55
2021/05/09 06:50:15;;;;;;;9.65;2.80;;;;;;;;;;4889097;29;20064;-51
2021/05/09 06:52:44;;;;;;;4.70;2.15;;;;;;;;;;4886943;29;20059;-54
2021/05/09 06:55:10;;;;;;;;;;;;;;;;;;4890773;29;20056;-57
2021/05/09 06:57:36;;;;;;;4.93;2.20;;;;;;;;;;4885334;29;19930;-59
2021/05/09 07:00:02;;;;;;;7.32;2.30;;;;;;;;;;4889086;29;20060;-58
2021/05/09 07:02:29;;;;;;;5.85;2.45;;;;;;;;;;4904841;29;20059;-57
2021/05/09 07:04:55;;;;;;;5.70;2.45;;;;;;;;;;4903427;29;20044;-56
2021/05/09 07:07:21;;;;;;;5.00;2.20;;;;;;;;;;4889683;29;20067;-55
2021/05/09 07:09:47;;;;;;;6.50;2.30;;;;;;;;;;4897924;29;20067;-54
2021/05/09 07:12:13;;;;;;;6.63;2.33;;;;;;;;;;4888774;29;20047;-53
2021/05/09 07:14:39;;;;;;;5.78;2.47;;;;;;;;;;4884611;29;20045;-56
2021/05/09 07:17:05;;;;;;;5.20;2.17;;;;;;;;;;4905904;29;20064;-52
2021/05/09 07:19:32;;;;;;;5.35;2.17;;;;;;;;;;4885483;29;20051;-51
2021/05/09 07:22:00;;;;;;;5.70;2.00;;;;;;;;;;4887369;29;20063;-51
2021/05/09 07:24:27;;;;;;;4.80;1.98;;;;;;;;;;4887023;29;20064;-55
2021/05/09 07:26:53;;;;;;;4.20;1.90;;;;;;;;;;4889538;29;20112;-52
2021/05/09 07:29:19;;;;;;;3.40;1.60;;;;;;;;;;4886681;29;20116;-56
2021/05/09 07:31:44;;;;;;;4.43;1.75;;;;;;;;;;4888405;29;20098;-56
2021/05/09 07:34:13;;;;;;;4.82;2.28;;;;;;;;;;4887690;29;20052;-54
2021/05/09 07:36:41;;;;;;;;;;;;;;;;;;4910451;29;20087;-55
2021/05/09 07:39:08;;;;;;;4.43;2.10;;;;;;;;;;4886484;29;20009;-56
2021/05/09 07:41:34;;;;;;;5.57;2.22;;;;;;;;;;4888911;29;20064;-54
2021/05/09 07:44:00;;;;;;;5.20;1.73;;;;;;;;;;4886809;29;20071;-56
2021/05/09 07:46:26;;;;;;;4.25;1.65;;;;;;;;;;4889061;29;20123;-56
2021/05/09 07:48:52;;;;;;;4.82;1.77;;;;;;;;;;4888845;29;20072;-52
2021/05/09 07:51:18;;;;;;;6.45;1.70;;;;;;;;;;4903670;29;20052;-57
2021/05/09 07:53:44;;;;;;;5.03;1.88;;;;;;;;;;4889124;29;20049;-55
2021/05/09 07:56:11;;;;;;;6.30;1.70;;;;;;;;;;4886717;29;20112;-56
2021/05/09 07:58:36;;;;;;;4.63;1.73;;;;;;;;;;4889682;29;20211;-56
2021/05/09 08:01:03;;;;;;;3.67;1.63;;;;;;;;;;4883597;29;20067;-54
2021/05/09 08:03:31;;;;;;;6.10;1.52;;;;;;;;;;4889795;29;20104;-54
2021/05/09 08:05:56;;;;;;;5.93;1.42;;;;;;;;;;4886332;29;20147;-52
2021/05/09 08:08:25;;;;;;;3.10;1.45;;;;;;;;;;4905804;29;20064;-55
2021/05/09 08:10:51;;;;;;;2.85;1.60;;;;;;;;;;4886767;29;20060;-56
2021/05/09 08:13:18;;;;;;;2.47;1.38;;;;;;;;;;4889125;29;20047;-56
2021/05/09 08:15:47;;;;;;;3.83;1.40;;;;;;;;;;4905575;29;20049;-55
2021/05/09 08:18:13;;;;;;;4.53;1.58;;;;;;;;;;4890462;29;20328;-56
2021/05/09 08:20:39;;;;;;;6.03;1.90;;;;;;;;;;4904842;29;20134;-56
2021/05/09 08:23:05;;;;;;;3.40;1.67;;;;;;;;;;4907505;29;20052;-56
2021/05/09 08:25:31;;;;;;;3.92;1.70;;;;;;;;;;4889771;29;20128;-57
2021/05/09 08:27:57;;;;;;;4.82;1.63;;;;;;;;;;4888727;29;20048;-56
2021/05/09 08:30:25;;;;;;;4.05;1.52;;;;;;;;;;4890107;29;20052;-57
2021/05/09 08:32:52;;;;;;;4.13;1.90;;;;;;;;;;4901624;29;20036;-58
2021/05/09 08:35:18;;;;;;;3.47;1.77;;;;;;;;;;4927321;29;20043;-59
2021/05/09 08:37:44;;;;;;;5.40;1.88;;;;;;;;;;4891531;29;20036;-54
2021/05/09 08:40:12;;;;;;;8.40;1.90;;;;;;;;;;4873581;29;20052;-59
2021/05/09 08:42:41;;;;;;;3.92;1.95;;;;;;;;;;4880745;29;20052;-58
2021/05/09 08:45:11;;;;;;;3.22;1.60;;;;;;;;;;4888665;29;20036;-56
2021/05/09 08:47:40;;;;;;;4.22;1.67;;;;;;;;;;4887797;29;20044;-55
2021/05/09 08:50:06;;;;;;;6.88;2.17;;;;;;;;;;4904328;29;20048;-54
2021/05/09 08:52:34;;;;;;;5.40;2.03;;;;;;;;;;4886529;29;20052;-57
2021/05/09 08:55:00;;;;;;;4.38;1.63;;;;;;;;;;4896391;29;20048;-55
2021/05/09 08:57:26;;;;;;;6.18;1.67;;;;;;;;;;4886347;29;20123;-54
2021/05/09 08:59:52;;;;;;;4.65;1.60;;;;;;;;;;4889337;29;20044;-56
2021/05/09 09:02:21;;;;;;;4.78;1.70;;;;;;;;;;4885657;29;20059;-57
2021/05/09 09:04:49;;;;;;;3.92;1.70;;;;;;;;;;4900690;29;20116;-55
2021/05/09 09:07:15;;;;;;;3.90;1.73;;;;;;;;;;4888046;29;20051;-55
2021/05/09 09:09:42;;;;;;;3.05;1.50;;;;;;;;;;4907207;29;20301;-56
2021/05/09 09:12:08;;;;;;;5.53;1.60;;;;;;;;;;4901500;29;20051;-55
2021/05/09 09:14:34;;;;;;;4.25;1.58;;;;;;;;;;4903741;29;20123;-59
2021/05/09 09:17:10;;;;;;;7.65;1.52;;;;;;;;;;4909259;29;20040;-57
2021/05/09 09:19:36;;;;;;;6.40;1.90;;;;;;;;;;4889322;29;20139;-57
2021/05/09 09:22:03;;;;;;;5.32;1.85;;;;;;;;;;4889940;29;20052;-54
2021/05/09 09:24:29;;;;;;;3.95;1.45;;;;;;;;;;4886947;29;20037;-55
2021/05/09 09:26:55;;;;;;;4.05;1.75;;;;;;;;;;4888883;29;20063;-58
2021/05/09 09:29:23;;;;;;;3.35;1.45;;;;;;;;;;4896407;29;20047;-54
2021/05/09 09:31:52;;;;;;;4.35;1.45;;;;;;;;;;4908595;29;20071;-57
2021/05/09 09:34:19;;;;;;;;;;;;;;;;;;4904827;29;20055;-58
2021/05/09 09:36:47;;;;;;;3.13;1.48;;;;;;;;;;4906966;29;19930;-61
2021/05/09 09:39:13;;;;;;;5.47;1.98;;;;;;;;;;4897672;29;20048;-57
2021/05/09 09:41:46;;;;;;;4.32;1.90;;;;;;;;;;4889357;29;20064;-60
2021/05/09 09:44:15;;;;;;;4.65;2.17;;;;;;;;;;4890686;29;20044;-56
2021/05/09 09:46:42;;;;;;;6.95;1.63;;;;;;;;;;4908712;29;20107;-57
2021/05/09 09:49:18;;;;;;;6.43;1.88;;;;;;;;;;4897038;29;20046;-57
2021/05/09 09:51:48;;;;;;;4.40;2.00;;;;;;;;;;4905036;29;20044;-58
2021/05/09 09:54:29;;;;;;;4.90;1.80;;;;;;;;;;4920697;29;20067;-56
2021/05/09 09:56:56;;;;;;;6.95;2.15;;;;;;;;;;4906806;29;20043;-57
2021/05/09 09:59:21;;;;;;;4.95;2.17;;;;;;;;;;4903899;29;20040;-59
2021/05/09 10:01:47;;;;;;;6.13;2.38;;;;;;;;;;4906485;29;20104;-57
2021/05/09 10:04:13;;;;;;;6.25;2.20;;;;;;;;;;4907011;29;20048;-60
2021/05/09 10:06:40;;;;;;;6.88;2.35;;;;;;;;;;4903590;29;20051;-58
2021/05/09 10:09:07;;;;;;;6.50;2.67;;;;;;;;;;4927641;29;20084;-59
2021/05/09 10:11:33;;;;;;;5.47;2.15;;;;;;;;;;4906709;29;20048;-60
2021/05/09 10:14:00;;;;;;;4.47;2.20;;;;;;;;;;4927714;29;20051;-58
2021/05/09 10:16:28;;;;;;;4.85;2.10;;;;;;;;;;4905258;29;20040;-61
2021/05/09 10:18:57;;;;;;;5.75;2.42;;;;;;;;;;4910073;29;20036;-59
2021/05/09 10:21:26;;;;;;;9.23;2.85;;;;;;;;;;4906347;29;20056;-59
2021/05/09 10:24:15;;;;;;;7.80;2.75;;;;;;;;;;4910518;29;20035;-59
2021/05/09 10:26:48;;;;;;;5.38;2.38;;;;;;;;;;4893403;29;20048;-57
2021/05/09 10:29:33;;;;;;;8.85;2.90;;;;;;;;;;4891186;29;20080;-56
2021/05/09 10:32:00;;;;;;;4.55;1.98;;;;;;;;;;4888485;29;20071;-58
2021/05/09 10:34:40;;;;;;;7.05;2.53;;;;;;;;;;4890971;29;20044;-58
2021/05/09 10:37:06;;;;;;;4.75;2.35;;;;;;;;;;4905050;29;20048;-58
2021/05/09 10:39:35;;;;;;;11.15;2.42;;;;;;;;;;4905458;29;20138;-55
2021/05/09 10:42:17;;;;;;;4.03;2.10;;;;;;;;;;4905843;29;20058;-58
2021/05/09 10:44:45;;;;;;;6.03;2.45;;;;;;;;;;4890435;29;20040;-58
2021/05/09 10:47:14;;;;;;;6.57;2.03;;;;;;;;;;4889476;29;20047;-58
2021/05/09 10:49:59;;;;;;;7.10;2.40;;;;;;;;;;4893576;29;20244;-57
2021/05/09 10:52:40;;;;;;;9.70;2.35;;;;;;;;;;4889702;29;20111;-58
2021/05/09 10:55:27;;;;;;;7.00;2.45;;;;;;;;;;4907384;29;20044;-62
2021/05/09 10:57:53;;;;;;;5.00;1.98;;;;;;;;;;4887897;29;20224;-61
2021/05/09 11:00:20;;;;;;;4.53;2.15;;;;;;;;;;4908402;29;20059;-60
2021/05/09 11:02:46;;;;;;;5.82;2.28;;;;;;;;;;4899695;29;20135;-60
2021/05/09 11:05:13;;;;;;;4.03;2.35;;;;;;;;;;4891478;29;20044;-61
2021/05/09 11:07:42;;;;;;;8.18;2.25;;;;;;;;;;4888691;29;20159;-62
2021/05/09 11:10:27;;;;;;;10.50;2.60;;;;;;;;;;4891402;29;20088;-63
2021/05/09 11:13:02;;;;;;;7.80;2.60;;;;;;;;;;4893540;29;20206;-59
2021/05/09 11:15:29;;;;;;;7.22;2.60;;;;;;;;;;4892541;29;20040;-60
2021/05/09 11:17:56;;;;;;;6.50;2.72;;;;;;;;;;4901381;29;20052;-61
2021/05/09 11:20:23;;;;;;;5.40;2.20;;;;;;;;;;4891020;29;20045;-61
2021/05/09 11:22:49;;;;;;;6.10;2.45;;;;;;;;;;4888915;29;20045;-61
2021/05/09 11:25:18;;;;;;;7.90;2.30;;;;;;;;;;4887972;29;20070;-62
2021/05/09 11:27:45;;;;;;;10.15;2.50;;;;;;;;;;4869152;29;20045;-62
2021/05/09 11:30:12;;;;;;;5.53;2.00;;;;;;;;;;4890100;29;20037;-62
2021/05/09 11:32:38;;;;;;;5.15;2.00;;;;;;;;;;4890708;29;20033;-61
2021/05/09 11:35:06;;;;;;;5.53;2.10;;;;;;;;;;4888838;29;20080;-61
2021/05/09 11:37:33;;;;;;;4.82;2.03;;;;;;;;;;4890549;29;20048;-62
2021/05/09 11:40:00;;;;;;;6.50;1.80;;;;;;;;;;4887211;29;20033;-60
2021/05/09 11:42:28;;;;;;;3.47;1.80;;;;;;;;;;4891222;29;20059;-62
2021/05/09 11:44:57;;;;;;;9.60;2.13;;;;;;;;;;4915575;29;20051;-61
2021/05/09 11:47:24;;;;;;;7.53;2.20;;;;;;;;;;4909537;29;20040;-61
2021/05/09 11:49:50;;;;;;;8.48;1.80;;;;;;;;;;4907311;29;20087;-61
2021/05/09 11:52:20;;;;;;;4.70;1.60;;;;;;;;;;4897321;29;20036;-60
2021/05/09 11:54:49;;;;;;;4.63;1.95;;;;;;;;;;4885979;29;20032;-62
2021/05/09 11:57:15;;;;;;;3.80;1.80;;;;;;;;;;4925971;29;20044;-58
2021/05/09 11:59:42;;;;;;;7.68;1.95;;;;;;;;;;4892334;29;20047;-62
2021/05/09 12:02:22;;;;;;;10.45;1.95;;;;;;;;;;4890240;29;20139;-61
2021/05/09 12:04:49;;;;;;;6.15;2.15;;;;;;;;;;4912011;29;20085;-62
2021/05/09 12:07:16;;;;;;;7.13;2.10;;;;;;;;;;4906764;29;20056;-62
2021/05/09 12:09:48;;;;;;;6.57;2.38;;;;;;;;;;4879504;29;20116;-59
2021/05/09 12:12:17;;;;;;;5.32;2.35;;;;;;;;;;4908320;29;20115;-58
2021/05/09 12:14:43;;;;;;;;;;;;;;;;;;4905717;29;20104;-59
2021/05/09 12:17:17;;;;;;;7.60;2.95;;;;;;;;;;4906492;29;19938;-62
2021/05/09 12:19:43;;;;;;;7.03;3.22;;;;;;;;;;4889840;29;20052;-61
2021/05/09 12:22:09;;;;;;;6.45;2.78;;;;;;;;;;4906247;29;20052;-62
2021/05/09 12:24:46;;;;;;;9.32;2.20;;;;;;;;;;4908769;29;20184;-59
2021/05/09 12:27:13;;;;;;;5.78;2.17;;;;;;;;;;4904290;29;20052;-60
2021/05/09 12:29:42;;;;;;;4.43;1.98;;;;;;;;;;4911114;29;20040;-57
2021/05/09 12:32:15;;;;;;;8.23;2.47;;;;;;;;;;4890585;29;20232;-61
2021/05/09 12:34:41;;;;;;;8.20;2.90;;;;;;;;;;4891350;29;20108;-61
2021/05/09 12:37:08;;;;;;;6.20;2.25;;;;;;;;;;4899902;29;20063;-60
2021/05/09 12:39:34;;;;;;;6.68;2.08;;;;;;;;;;4908214;29;20080;-58
2021/05/09 12:42:02;;;;;;;4.10;1.92;;;;;;;;;;4895130;29;20056;-58
2021/05/09 12:44:28;;;;;;;6.03;2.17;;;;;;;;;;4889376;29;20044;-58
2021/05/09 12:46:54;;;;;;;5.18;2.05;;;;;;;;;;4886518;29;20090;-59
2021/05/09 12:49:20;;;;;;;6.18;2.22;;;;;;;;;;4889266;29;20091;-58
2021/05/09 12:51:50;;;;;;;4.95;2.63;;;;;;;;;;4892336;29;20039;-70
2021/05/09 12:54:36;;;;;;;8.55;3.70;;;;;;;;;;4900285;29;20033;-60
2021/05/09 12:57:30;;;;;;;7.45;2.15;;;;;;;;;;4891951;29;20096;-59
2021/05/09 12:59:58;;;;;;;6.15;1.90;;;;;;;;;;4883234;29;20043;-58
2021/05/09 13:02:25;;;;;;;3.25;1.60;;;;;;;;;;4913411;29;20048;-57
2021/05/09 13:04:54;;;;;;;3.05;1.65;;;;;;;;;;4903596;29;20040;-62
2021/05/09 13:07:22;;;;;;;5.15;1.98;;;;;;;;;;4898900;29;20036;-61
2021/05/09 13:09:49;;;;;;;5.47;1.90;;;;;;;;;;4889671;29;20036;-58
2021/05/09 13:12:15;;;;;;;4.07;1.83;;;;;;;;;;4904017;29;20187;-58
2021/05/09 13:14:43;;;;;;;5.15;1.90;;;;;;;;;;4890514;29;20099;-59
2021/05/09 13:17:10;;;;;;;5.45;1.63;;;;;;;;;;4884282;29;20032;-58
2021/05/09 13:19:38;;;;;;;5.72;1.90;;;;;;;;;;4888452;29;20036;-58
2021/05/09 13:22:04;;;;;;;3.88;1.73;;;;;;;;;;4888797;29;20044;-62
2021/05/09 13:24:31;;;;;;;4.63;1.75;;;;;;;;;;4903906;29;20047;-60
2021/05/09 13:26:57;;;;;;;3.80;1.83;;;;;;;;;;4890485;29;20048;-58
2021/05/09 13:29:22;;;;;;;5.78;1.85;;;;;;;;;;4885961;29;20056;-62
2021/05/09 13:31:48;;;;;;;5.95;1.83;;;;;;;;;;4891378;29;20036;-62
2021/05/09 13:34:16;;;;;;;4.35;1.98;;;;;;;;;;4896897;29;20060;-62
2021/05/09 13:36:43;;;;;;;5.30;2.20;;;;;;;;;;4898619;29;20059;-61
2021/05/09 13:39:09;;;;;;;9.45;2.92;;;;;;;;;;4887666;29;20101;-62
2021/05/09 13:41:35;;;;;;;4.65;1.90;;;;;;;;;;4886126;29;20037;-63
2021/05/09 13:44:01;;;;;;;4.72;2.17;;;;;;;;;;4897989;29;20059;-60
2021/05/09 13:46:27;;;;;;;7.68;3.72;;;;;;;;;;4876643;29;20045;-60
2021/05/09 13:48:53;;;;;;;8.23;2.95;;;;;;;;;;4888981;29;20056;-59
2021/05/09 13:51:20;;;;;;;8.48;3.97;;;;;;;;;;4889470;29;20096;-60
2021/05/09 13:53:46;;;;;;;4.80;2.58;;;;;;;;;;4904183;29;20056;-59
2021/05/09 13:56:12;;;;;;;9.68;2.15;;;;;;;;;;4906396;29;20056;-61
2021/05/09 13:58:38;;;;;;;5.45;2.25;;;;;;;;;;4888293;29;20127;-59
2021/05/09 14:01:04;;;;;;;6.50;2.38;;;;;;;;;;4887406;29;20036;-60
2021/05/09 14:03:30;;;;;;;7.63;2.85;;;;;;;;;;4881243;29;20072;-60
2021/05/09 14:05:58;;;;;;;8.43;2.28;;;;;;;;;;4888575;29;20144;-58
2021/05/09 14:08:25;;;;;;;9.00;2.00;;;;;;;;;;4897270;29;20100;-61
2021/05/09 14:10:51;;;;;;;6.38;2.95;;;;;;;;;;4897822;29;20070;-60
2021/05/09 14:13:18;;;;;;;4.63;2.08;;;;;;;;;;4908934;29;20048;-59
2021/05/09 14:15:47;;;;;;;5.70;2.45;;;;;;;;;;4904958;29;20083;-59
2021/05/09 14:18:12;;;;;;;;;;;;;;;;;;4909969;29;20051;-63
2021/05/09 14:20:38;;;;;;;5.05;2.13;;;;;;;;;;4898023;29;20006;-59
2021/05/09 14:23:04;;;;;;;5.22;2.10;;;;;;;;;;4890062;29;20041;-62
2021/05/09 14:25:31;;;;;;;5.85;1.70;;;;;;;;;;4886844;29;20058;-60
2021/05/09 14:27:57;;;;;;;4.07;2.17;;;;;;;;;;4889438;29;20101;-62
2021/05/09 14:30:23;;;;;;;7.68;1.88;;;;;;;;;;4902805;29;20044;-64
2021/05/09 14:32:50;;;;;;;6.50;2.20;;;;;;;;;;4888620;29;20076;-63
2021/05/09 14:35:17;;;;;;;4.68;1.80;;;;;;;;;;4889466;29;20044;-61
2021/05/09 14:37:43;;;;;;;7.78;2.30;;;;;;;;;;4920482;29;20047;-62
2021/05/09 14:40:09;;;;;;;7.32;2.13;;;;;;;;;;4908367;29;20044;-61
2021/05/09 14:42:36;;;;;;;3.63;1.90;;;;;;;;;;4889550;29;20040;-64
2021/05/09 14:45:04;;;;;;;5.82;2.38;;;;;;;;;;4888269;29;20055;-60
2021/05/09 14:47:31;;;;;;;7.35;2.35;;;;;;;;;;4898278;29;20063;-63